Time;durP1;ratioP1;P1;durP2;ratioP2;P2;SDS_P1;SDS_P2;PMS_P1;PMS_P2;Temp;Humidity;BMP_temperature;BMP_pressure;BME280_temperature;BME280_humidity;BME280_pressure;Samples;Min_cycle;Max_cycle;Signal;HPM_P1;HPM_P2
2022/08/27 00:02:03;;;;;;;;;;;;;;;19.94;67.07;100084.27;1642840;86;20758;-74
2022/08/27 00:04:29;;;;;;;;;;;;;;;19.94;67.04;100082.09;1642880;86;20919;-74
2022/08/27 00:06:55;;;;;;;;;;;;;;;19.88;67.06;100085.73;1643054;86;20274;-74
2022/08/27 00:09:21;;;;;;;;;;;;;;;19.83;67.08;100085.64;1642873;86;20217;-74
2022/08/27 00:11:47;;;;;;;;;;;;;;;19.77;67.12;100081.98;1643243;86;20151;-74
2022/08/27 00:14:13;;;;;;;;;;;;;;;19.72;67.16;100078.35;1643106;86;20213;-74
2022/08/27 00:16:40;;;;;;;;;;;;;;;19.68;67.22;100078.53;1643204;86;21056;-74
2022/08/27 00:19:06;;;;;;;;;;;;;;;19.63;67.27;100079.79;1643104;86;20175;-74
2022/08/27 00:21:32;;;;;;;;;;;;;;;19.62;67.34;100075.42;1643007;86;20828;-73
2022/08/27 00:23:58;;;;;;;;;;;;;;;19.56;67.38;100081.80;1643248;86;20277;-74
2022/08/27 00:26:24;;;;;;;;;;;;;;;19.50;67.47;100078.66;1643306;86;20163;-74
2022/08/27 00:28:50;;;;;;;;;;;;;;;19.41;67.58;100079.03;1652002;86;21227;-73
2022/08/27 00:31:16;;;;;;;;;;;;;;;19.33;67.70;100077.98;1647513;86;20159;-74
2022/08/27 00:33:42;;;;;;;;;;;;;;;19.28;67.76;100079.20;1643230;86;20256;-73
2022/08/27 00:36:08;;;;;;;;;;;;;;;19.21;67.88;100079.84;1642803;86;20171;-73
2022/08/27 00:38:34;;;;;;;;;;;;;;;19.20;67.96;100078.22;1642812;86;21360;-73
2022/08/27 00:41:00;;;;;;;;;;;;;;;19.21;68.02;100083.91;1643481;86;21138;-74
2022/08/27 00:43:30;;;;;;;;;;;;;;;19.23;68.06;100088.56;1643199;86;20214;-74
2022/08/27 00:45:59;;;;;;;;;;;;;;;19.15;68.15;100081.31;1643361;86;20167;-73
2022/08/27 00:48:27;;;;;;;;;;;;;;;19.12;68.25;100079.91;1642932;86;20184;-74
2022/08/27 00:50:53;;;;;;;;;;;;;;;19.08;68.32;100080.08;1643211;86;20207;-74
2022/08/27 00:53:22;;;;;;;;;;;;;;;19.05;68.42;100077.84;1643268;86;21188;-74
2022/08/27 00:55:51;;;;;;;;;;;;;;;18.91;68.49;100086.69;1642949;86;20436;-73
2022/08/27 00:58:22;;;;;;;;;;;;;;;18.79;68.69;100093.11;1643240;86;20167;-74
2022/08/27 01:00:48;;;;;;;;;;;;;;;18.73;68.84;100088.11;1642480;86;20163;-74
2022/08/27 01:03:14;;;;;;;;;;;;;;;18.74;68.96;100091.64;1642995;86;20825;-73
2022/08/27 01:05:40;;;;;;;;;;;;;;;18.73;69.05;100096.21;1642902;86;21181;-73
2022/08/27 01:08:08;;;;;;;;;;;;;;;18.75;69.15;100101.40;1642086;86;20187;-74
2022/08/27 01:10:34;;;;;;;;;;;;;;;18.72;69.22;100101.83;1652386;86;20463;-73
2022/08/27 01:13:01;;;;;;;;;;;;;;;18.69;69.37;100097.72;1635831;86;40274;-74
2022/08/27 01:15:28;;;;;;;;;;;;;;;18.68;69.46;100100.67;1652060;86;20237;-74
2022/08/27 01:17:54;;;;;;;;;;;;;;;18.68;69.59;100102.82;1658252;86;21206;-74
2022/08/27 01:20:26;;;;;;;;;;;;;;;18.66;69.70;100094.66;1655049;86;20205;-74
2022/08/27 01:23:08;;;;;;;;;;;;;;;18.63;69.82;100097.82;1656691;86;20157;-74
2022/08/27 01:25:34;;;;;;;;;;;;;;;18.58;70.00;100093.66;1652506;86;20184;-74
2022/08/27 01:28:00;;;;;;;;;;;;;;;18.59;70.13;100093.92;1657161;86;20828;-74
2022/08/27 01:30:26;;;;;;;;;;;;;;;18.58;70.23;100104.45;1655570;86;21818;-74
2022/08/27 01:32:52;;;;;;;;;;;;;;;18.52;70.33;100104.00;1654503;86;20245;-74
2022/08/27 01:35:19;;;;;;;;;;;;;;;18.47;70.46;100100.06;1649738;86;20173;-74
2022/08/27 01:37:48;;;;;;;;;;;;;;;18.46;70.57;100093.04;1630084;86;20467;-74
2022/08/27 01:40:14;;;;;;;;;;;;;;;18.47;70.66;100104.12;1642887;86;20161;-74
2022/08/27 01:42:42;;;;;;;;;;;;;;;18.42;70.77;100102.64;1643134;86;21695;-74
2022/08/27 01:45:10;;;;;;;;;;;;;;;18.26;70.82;100099.76;1642898;86;20518;-74
2022/08/27 01:47:36;;;;;;;;;;;;;;;18.19;71.01;100101.72;1643140;86;20463;-75
2022/08/27 01:50:05;;;;;;;;;;;;;;;18.17;71.17;100099.23;1643064;86;20558;-74
2022/08/27 01:52:31;;;;;;;;;;;;;;;18.13;71.29;100103.42;1642220;86;20191;-74
2022/08/27 01:54:57;;;;;;;;;;;;;;;18.12;71.40;100100.97;1643239;86;21125;-74
2022/08/27 01:57:23;;;;;;;;;;;;;;;18.00;71.48;100098.19;1642789;86;20215;-73
2022/08/27 01:59:49;;;;;;;;;;;;;;;17.91;71.67;100094.13;1642841;86;20821;-73
2022/08/27 02:02:15;;;;;;;;;;;;;;;17.90;71.81;100095.20;1642891;86;20248;-74
2022/08/27 02:04:42;;;;;;;;;;;;;;;17.85;71.91;100097.21;1668556;86;20164;-73
2022/08/27 02:07:08;;;;;;;;;;;;;;;17.79;72.03;100098.64;1667069;86;21141;-74
2022/08/27 02:09:34;;;;;;;;;;;;;;;17.72;72.15;100087.09;1651136;86;20190;-74
2022/08/27 02:12:00;;;;;;;;;;;;;;;17.59;72.28;100081.84;1668446;86;20169;-73
2022/08/27 02:14:27;;;;;;;;;;;;;;;17.57;72.45;100081.23;1666217;86;20175;-73
2022/08/27 02:16:52;;;;;;;;;;;;;;;17.56;72.63;100079.57;1668527;86;20165;-74
2022/08/27 02:19:19;;;;;;;;;;;;;;;17.48;72.69;100086.90;1666697;86;21988;-73
2022/08/27 02:21:45;;;;;;;;;;;;;;;17.42;72.84;100089.62;1668307;86;20469;-74
2022/08/27 02:24:11;;;;;;;;;;;;;;;17.41;72.95;100091.53;1666431;86;20215;-74
2022/08/27 02:26:37;;;;;;;;;;;;;;;17.42;73.04;100086.41;1668542;86;20379;-73
2022/08/27 02:29:03;;;;;;;;;;;;;;;17.42;73.11;100087.77;1668539;86;20449;-73
2022/08/27 02:31:30;;;;;;;;;;;;;;;17.42;73.22;100085.59;1639238;86;21129;-74
2022/08/27 02:33:56;;;;;;;;;;;;;;;17.38;73.31;100077.12;1648221;86;20156;-74
2022/08/27 02:36:23;;;;;;;;;;;;;;;17.30;73.38;100076.08;1648071;86;20213;-74
2022/08/27 02:38:49;;;;;;;;;;;;;;;17.25;73.46;100078.59;1643032;86;20212;-73
2022/08/27 02:41:16;;;;;;;;;;;;;;;17.21;73.62;100084.13;1643326;86;20172;-74
2022/08/27 02:43:42;;;;;;;;;;;;;;;17.21;73.74;100084.64;1631695;86;21159;-73
2022/08/27 02:46:10;;;;;;;;;;;;;;;17.20;73.85;100086.53;1647047;86;20171;-73
2022/08/27 02:48:37;;;;;;;;;;;;;;;17.19;73.89;100087.58;1648729;86;20163;-74
2022/08/27 02:51:04;;;;;;;;;;;;;;;17.14;74.00;100082.00;1648474;86;20184;-74
2022/08/27 02:53:31;;;;;;;;;;;;;;;17.11;74.07;100087.01;1646737;86;20176;-74
2022/08/27 02:55:57;;;;;;;;;;;;;;;17.03;74.15;100078.67;1650759;86;21295;-74
2022/08/27 02:58:23;;;;;;;;;;;;;;;16.93;74.21;100078.34;1622310;87;20198;-73
2022/08/27 03:00:49;;;;;;;;;;;;;;;16.84;74.35;100072.93;1648234;86;20213;-73
2022/08/27 03:03:15;;;;;;;;;;;;;;;16.82;74.51;100072.30;1646465;86;20229;-74
2022/08/27 03:05:41;;;;;;;;;;;;;;;16.83;74.67;100072.62;1646354;86;20759;-73
2022/08/27 03:08:07;;;;;;;;;;;;;;;16.87;74.75;100072.48;1654733;86;21329;-73
2022/08/27 03:10:33;;;;;;;;;;;;;;;16.82;74.81;100078.52;1647632;86;20186;-73
2022/08/27 03:12:59;;;;;;;;;;;;;;;16.73;74.90;100093.82;1650081;86;20418;-74
2022/08/27 03:15:25;;;;;;;;;;;;;;;16.74;75.07;100082.02;1646687;86;20170;-74
2022/08/27 03:20:40;;;;;;;;;;;;;;;16.78;75.28;100075.95;1644865;86;21034;-74
2022/08/27 03:23:07;;;;;;;;;;;;;;;16.80;75.40;100083.31;1650700;86;20469;-73
2022/08/27 03:25:32;;;;;;;;;;;;;;;16.83;75.48;100079.34;1645268;86;20507;-73
2022/08/27 03:27:58;;;;;;;;;;;;;;;16.84;75.57;100079.66;1654684;86;20180;-74
2022/08/27 03:30:24;;;;;;;;;;;;;;;16.80;75.67;100082.48;1646365;86;20273;-75
2022/08/27 03:32:50;;;;;;;;;;;;;;;16.76;75.75;100081.27;1648262;86;20739;-74
2022/08/27 03:35:16;;;;;;;;;;;;;;;16.71;75.83;100081.91;1647377;86;20217;-74
2022/08/27 03:37:42;;;;;;;;;;;;;;;16.65;75.87;100075.22;1642289;86;20207;-74
2022/08/27 03:40:09;;;;;;;;;;;;;;;16.63;76.03;100080.02;1642152;86;20182;-74
2022/08/27 03:42:35;;;;;;;;;;;;;;;16.62;76.17;100085.09;1642785;86;20553;-74
2022/08/27 03:45:01;;;;;;;;;;;;;;;16.61;76.28;100089.64;1642348;87;21118;-74
2022/08/27 03:47:27;;;;;;;;;;;;;;;16.61;76.38;100091.50;1643088;86;20188;-74
2022/08/27 03:49:53;;;;;;;;;;;;;;;16.61;76.46;100098.23;1642472;86;20184;-74
2022/08/27 03:52:19;;;;;;;;;;;;;;;16.61;76.56;100095.55;1640793;86;20194;-75
2022/08/27 03:54:45;;;;;;;;;;;;;;;16.64;76.69;100095.14;1642434;86;20175;-73
2022/08/27 03:57:11;;;;;;;;;;;;;;;16.68;76.74;100097.67;1642328;86;21672;-74
2022/08/27 03:59:37;;;;;;;;;;;;;;;16.69;76.81;100099.33;1642249;86;20261;-74
2022/08/27 04:02:03;;;;;;;;;;;;;;;16.65;76.87;100091.37;1632165;86;20210;-74
2022/08/27 04:04:29;;;;;;;;;;;;;;;16.70;76.96;100094.27;1618646;87;20183;-74
2022/08/27 04:06:56;;;;;;;;;;;;;;;16.70;77.02;100095.61;1617882;87;20199;-74
2022/08/27 04:09:22;;;;;;;;;;;;;;;16.74;77.12;100094.14;1618951;87;21305;-74
2022/08/27 04:11:49;;;;;;;;;;;;;;;16.81;77.18;100092.23;1618752;87;20172;-74
2022/08/27 04:14:15;;;;;;;;;;;;;;;16.82;77.19;100084.42;1619980;87;20175;-74
2022/08/27 04:16:42;;;;;;;;;;;;;;;16.84;77.27;100083.70;1619149;87;20362;-74
2022/08/27 04:19:08;;;;;;;;;;;;;;;16.83;77.31;100086.09;1617935;87;20168;-74
2022/08/27 04:21:34;;;;;;;;;;;;;;;16.81;77.38;100086.84;1621222;87;21122;-75
2022/08/27 04:24:00;;;;;;;;;;;;;;;16.82;77.44;100083.08;1656642;85;20210;-74
2022/08/27 04:26:27;;;;;;;;;;;;;;;16.86;77.51;100082.95;1667486;85;20240;-74
2022/08/27 04:28:54;;;;;;;;;;;;;;;16.85;77.55;100080.77;1658276;85;20189;-70
2022/08/27 04:31:20;;;;;;;;;;;;;;;16.78;77.55;100073.27;1658410;85;20193;-71
2022/08/27 04:33:46;;;;;;;;;;;;;;;16.76;77.64;100079.41;1658593;85;21773;-71
2022/08/27 04:36:12;;;;;;;;;;;;;;;16.78;77.69;100085.93;1665191;84;20262;-71
2022/08/27 04:38:38;;;;;;;;;;;;;;;16.82;77.79;100083.08;1657725;85;20239;-71
2022/08/27 04:41:26;;;;;;;;;;;;;;;17.15;78.07;100088.22;1657991;85;20271;-71
2022/08/27 04:43:55;;;;;;;;;;;;;;;17.66;78.11;100095.54;1621411;87;20485;-72
2022/08/27 04:46:25;;;;;;;;;;;;;;;17.70;77.79;100087.30;1658482;85;21788;-72
2022/08/27 04:48:51;;;;;;;;;;;;;;;17.95;77.93;100089.41;1621986;87;20194;-72
2022/08/27 04:51:18;;;;;;;;;;;;;;;18.57;78.08;100090.64;1620530;88;20171;-71
2022/08/27 04:53:44;;;;;;;;;;;;;;;18.91;77.59;100088.56;1619124;87;20586;-72
2022/08/27 04:56:13;;;;;;;;;;;;;;;18.70;77.25;100095.84;1619366;87;20181;-72
2022/08/27 04:58:38;;;;;;;;;;;;;;;18.54;77.25;100100.04;1619043;87;21190;-72
2022/08/27 05:01:06;;;;;;;;;;;;;;;18.70;77.51;100098.55;1618900;87;20289;-72
2022/08/27 05:03:32;;;;;;;;;;;;;;;18.98;77.34;100096.05;1642132;86;20147;-72
2022/08/27 05:06:00;;;;;;;;;;;;;;;19.51;77.53;100096.54;1644770;86;20234;-72
2022/08/27 05:08:26;;;;;;;;;;;;;;;20.32;77.29;100090.49;1644324;87;20505;-72
2022/08/27 05:10:52;;;;;;;;;;;;;;;20.95;76.78;100098.97;1645046;86;21089;-72
2022/08/27 05:13:19;;;;;;;;;;;;;;;21.17;76.03;100099.10;1644970;86;20608;-72
2022/08/27 05:15:45;;;;;;;;;;;;;;;21.18;75.45;100104.27;1644893;86;20180;-72
2022/08/27 05:18:12;;;;;;;;;;;;;;;21.21;75.03;100105.16;1645299;86;20182;-72
2022/08/27 05:20:42;;;;;;;;;;;;;;;21.43;75.02;100100.60;1644998;86;20160;-72
2022/08/27 05:23:08;;;;;;;;;;;;;;;21.66;75.15;100100.13;1644809;86;21508;-72
2022/08/27 05:25:39;;;;;;;;;;;;;;;21.80;75.21;100090.56;1644991;86;20273;-72
2022/08/27 05:28:04;;;;;;;;;;;;;;;21.82;75.26;100089.77;1644869;86;20447;-72
2022/08/27 05:30:37;;;;;;;;;;;;;;;21.95;75.28;100103.03;1644912;86;20286;-72
2022/08/27 05:33:03;;;;;;;;;;;;;;;22.02;74.94;100120.49;1644239;86;20187;-72
2022/08/27 05:35:30;;;;;;;;;;;;;;;21.95;74.75;100124.75;1644799;86;21655;-73
2022/08/27 05:37:56;;;;;;;;;;;;;;;22.01;74.75;100127.81;1644784;86;20171;-73
2022/08/27 05:40:22;;;;;;;;;;;;;;;22.09;74.72;100115.16;1644968;86;20718;-73
2022/08/27 05:42:48;;;;;;;;;;;;;;;22.14;74.81;100101.63;1644502;86;20976;-73
2022/08/27 05:45:15;;;;;;;;;;;;;;;22.35;74.89;100087.22;1659443;85;20188;-73
2022/08/27 05:47:41;;;;;;;;;;;;;;;22.66;74.71;100098.44;1630869;86;21892;-72
2022/08/27 05:50:08;;;;;;;;;;;;;;;22.72;74.50;100111.03;1642281;86;20906;-73
2022/08/27 05:52:35;;;;;;;;;;;;;;;22.77;74.39;100117.86;1642203;86;20171;-75
2022/08/27 05:55:01;;;;;;;;;;;;;;;22.86;74.09;100119.06;1641735;86;20425;-75
2022/08/27 05:57:27;;;;;;;;;;;;;;;22.72;73.98;100121.91;1643028;86;20171;-75
2022/08/27 06:02:39;;;;;;;;;;;;;;;22.27;73.99;100102.59;1642701;86;20123;-75
2022/08/27 06:05:05;;;;;;;;;;;;;;;21.77;73.93;100111.42;1642914;86;20365;-75
2022/08/27 06:07:32;;;;;;;;;;;;;;;21.73;73.98;100102.13;1642746;86;21095;-75
2022/08/27 06:09:58;;;;;;;;;;;;;;;21.79;73.93;100105.20;1643044;86;20450;-75
2022/08/27 06:12:24;;;;;;;;;;;;;;;21.64;73.85;100125.36;1643094;86;22813;-75
2022/08/27 06:14:50;;;;;;;;;;;;;;;21.58;73.99;100121.73;1643248;86;20167;-75
2022/08/27 06:17:16;;;;;;;;;;;;;;;21.78;74.08;100125.27;1643302;86;20289;-75
2022/08/27 06:19:44;;;;;;;;;;;;;;;22.11;74.01;100123.87;1643133;86;21018;-75
2022/08/27 06:22:10;;;;;;;;;;;;;;;22.37;73.98;100117.69;1642609;86;20115;-75
2022/08/27 06:24:38;;;;;;;;;;;;;;;22.63;73.82;100112.52;1643396;86;21193;-75
2022/08/27 06:27:04;;;;;;;;;;;;;;;22.80;73.67;100117.34;1643472;86;20486;-75
2022/08/27 06:29:32;;;;;;;;;;;;;;;23.17;73.62;100119.63;1643144;86;20191;-75
2022/08/27 06:31:58;;;;;;;;;;;;;;;23.26;73.29;100113.97;1643027;86;20395;-75
2022/08/27 06:34:24;;;;;;;;;;;;;;;23.35;73.15;100111.06;1643067;86;20865;-76
2022/08/27 06:36:50;;;;;;;;;;;;;;;23.61;72.92;100108.56;1643228;86;21457;-75
2022/08/27 06:39:16;;;;;;;;;;;;;;;23.81;72.74;100107.32;1643196;86;20206;-75
2022/08/27 06:41:41;;;;;;;;;;;;;;;24.14;72.54;100097.42;1643208;86;20289;-75
2022/08/27 06:44:07;;;;;;;;;;;;;;;24.49;72.33;100099.45;1643089;86;21152;-76
2022/08/27 06:46:33;;;;;;;;;;;;;;;24.68;71.96;100097.05;1642999;86;20198;-76
2022/08/27 06:49:00;;;;;;;;;;;;;;;24.86;71.70;100093.84;1618910;87;21835;-75
2022/08/27 06:51:28;;;;;;;;;;;;;;;25.03;71.40;100088.94;1642979;86;20157;-75
2022/08/27 06:53:55;;;;;;;;;;;;;;;25.19;70.95;100093.30;1642826;86;20187;-76
2022/08/27 06:56:21;;;;;;;;;;;;;;;25.11;70.54;100096.59;1642953;86;20438;-76
2022/08/27 06:58:49;;;;;;;;;;;;;;;24.97;70.10;100098.23;1643252;86;20206;-76
2022/08/27 07:01:17;;;;;;;;;;;;;;;24.98;69.88;100099.05;1642950;86;22733;-75
2022/08/27 07:03:43;;;;;;;;;;;;;;;25.00;69.53;100094.95;1642431;86;20953;-75
2022/08/27 07:06:10;;;;;;;;;;;;;;;25.06;69.25;100095.77;1643109;86;20342;-75
2022/08/27 07:08:36;;;;;;;;;;;;;;;25.05;68.93;100095.51;1642910;86;20490;-76
2022/08/27 07:11:02;;;;;;;;;;;;;;;25.03;68.71;100094.41;1643314;86;20253;-75
2022/08/27 07:13:28;;;;;;;;;;;;;;;25.11;68.43;100104.79;1647709;86;21866;-75
2022/08/27 07:15:55;;;;;;;;;;;;;;;25.14;68.18;100100.69;1657530;86;20221;-75
2022/08/27 07:18:21;;;;;;;;;;;;;;;25.12;67.91;100103.67;1663184;86;20164;-76
2022/08/27 07:20:47;;;;;;;;;;;;;;;25.10;67.68;100104.50;1655787;86;21133;-75
2022/08/27 07:23:13;;;;;;;;;;;;;;;25.14;67.42;100106.97;1663370;86;20476;-75
2022/08/27 07:25:40;;;;;;;;;;;;;;;25.10;67.14;100110.50;1658071;86;21802;-75
2022/08/27 07:28:06;;;;;;;;;;;;;;;25.07;66.95;100109.69;1661007;86;20128;-76
2022/08/27 07:30:32;;;;;;;;;;;;;;;25.09;66.71;100106.13;1660304;86;20759;-76
2022/08/27 07:32:58;;;;;;;;;;;;;;;25.08;66.50;100106.70;1658187;86;21246;-76
2022/08/27 07:35:24;;;;;;;;;;;;;;;25.13;66.34;100108.05;1656885;86;20166;-75
2022/08/27 07:37:50;;;;;;;;;;;;;;;25.25;66.30;100105.88;1643073;86;21804;-76
2022/08/27 07:40:16;;;;;;;;;;;;;;;25.29;66.05;100102.88;1643048;86;20593;-76
2022/08/27 07:45:27;;;;;;;;;;;;;;;25.43;65.75;100096.86;1643082;86;20975;-76
2022/08/27 07:47:53;;;;;;;;;;;;;;;25.49;65.52;100101.20;1642761;86;20159;-76
2022/08/27 07:50:19;;;;;;;;;;;;;;;25.65;65.47;100100.14;1651332;86;21889;-76
2022/08/27 07:52:45;;;;;;;;;;;;;;;25.76;65.36;100098.45;1663558;86;20116;-75
2022/08/27 07:55:11;;;;;;;;;;;;;;;25.79;65.08;100102.57;1647755;86;20384;-76
2022/08/27 07:57:37;;;;;;;;;;;;;;;25.89;65.04;100102.54;1660740;86;20443;-76
2022/08/27 08:00:05;;;;;;;;;;;;;;;26.05;64.98;100097.28;1656729;86;20767;-76
2022/08/27 08:02:31;;;;;;;;;;;;;;;26.17;64.73;100101.92;1657622;86;22622;-76
2022/08/27 08:04:57;;;;;;;;;;;;;;;26.03;64.38;100092.66;1634879;86;20263;-76
2022/08/27 08:07:23;;;;;;;;;;;;;;;25.82;64.14;100093.81;1632033;87;20281;-75
2022/08/27 08:09:49;;;;;;;;;;;;;;;25.82;64.07;100089.17;1636610;86;20523;-76
2022/08/27 08:12:15;;;;;;;;;;;;;;;25.87;63.99;100090.23;1629671;87;20167;-76
2022/08/27 08:14:41;;;;;;;;;;;;;;;25.93;63.96;100094.03;1594445;87;22665;-76
2022/08/27 08:17:07;;;;;;;;;;;;;;;26.12;63.99;100093.70;1600274;87;20417;-76
2022/08/27 08:19:33;;;;;;;;;;;;;;;26.35;63.85;100094.19;1605459;87;20199;-76
2022/08/27 08:21:59;;;;;;;;;;;;;;;26.49;63.75;100109.71;1598292;87;20529;-76
2022/08/27 08:24:25;;;;;;;;;;;;;;;26.74;63.78;100121.06;1623446;87;20175;-76
2022/08/27 08:26:51;;;;;;;;;;;;;;;26.88;63.66;100120.73;1627674;87;21888;-76
2022/08/27 08:29:17;;;;;;;;;;;;;;;27.06;63.63;100118.66;1625123;87;20931;-76
2022/08/27 08:31:43;;;;;;;;;;;;;;;27.24;63.48;100120.71;1630677;86;20215;-76
2022/08/27 08:34:09;;;;;;;;;;;;;;;27.30;63.39;100117.39;1625098;87;20494;-76
2022/08/27 08:36:35;;;;;;;;;;;;;;;27.42;63.21;100117.82;1624351;87;20237;-76
2022/08/27 08:39:01;;;;;;;;;;;;;;;27.58;63.05;100113.06;1619248;87;21705;-76
2022/08/27 08:41:37;;;;;;;;;;;;;;;27.60;62.87;100112.20;1619254;87;20163;-76
2022/08/27 08:44:07;;;;;;;;;;;;;;;27.56;62.72;100127.59;1618870;87;20119;-76
2022/08/27 08:46:37;;;;;;;;;;;;;;;27.64;62.66;100127.80;1618300;87;21183;-76
2022/08/27 08:49:12;;;;;;;;;;;;;;;27.58;62.48;100129.50;1618889;87;20475;-76
2022/08/27 08:51:41;;;;;;;;;;;;;;;27.56;62.38;100129.77;1586860;88;21896;-76
2022/08/27 08:54:11;;;;;;;;;;;;;;;27.66;62.24;100122.00;1619137;87;20612;-76
2022/08/27 08:56:44;;;;;;;;;;;;;;;27.50;61.88;100128.20;1619322;87;20451;-76
2022/08/27 08:59:13;;;;;;;;;;;;;;;27.45;61.80;100130.14;1618746;87;21072;-76
2022/08/27 09:01:39;;;;;;;;;;;;;;;27.50;61.80;100128.75;1619153;87;20191;-76
2022/08/27 09:04:07;;;;;;;;;;;;;;;27.71;61.71;100124.16;1618946;86;22047;-76
2022/08/27 09:06:53;;;;;;;;;;;;;;;27.59;61.15;100131.94;1597308;88;20700;-76
2022/08/27 09:09:21;;;;;;;;;;;;;;;27.41;61.04;100124.97;1619067;87;20096;-76
2022/08/27 09:11:51;;;;;;;;;;;;;;;27.55;61.05;100123.23;1619203;87;20369;-76
2022/08/27 09:14:32;;;;;;;;;;;;;;;27.78;60.94;100127.92;1619337;87;20171;-76
2022/08/27 09:16:59;;;;;;;;;;;;;;;27.95;60.74;100126.91;1600179;87;21809;-76
2022/08/27 09:19:26;;;;;;;;;;;;;;;28.20;60.55;100129.40;1599825;87;20558;-75
2022/08/27 09:22:04;;;;;;;;;;;;;;;28.29;60.37;100128.18;1595588;87;20129;-76
2022/08/27 09:24:40;;;;;;;;;;;;;;;28.24;60.04;100131.83;1595532;87;20494;-75
2022/08/27 09:27:06;;;;;;;;;;;;;;;28.06;59.83;100127.06;1602434;87;20370;-75
2022/08/27 09:29:32;;;;;;;;;;;;;;;28.12;59.82;100130.03;1585443;87;21803;-75
2022/08/27 09:32:01;;;;;;;;;;;;;;;28.38;59.65;100126.44;1604970;87;20276;-76
2022/08/27 09:34:35;;;;;;;;;;;;;;;28.44;59.23;100123.06;1606734;87;20105;-75
2022/08/27 09:37:07;;;;;;;;;;;;;;;28.17;58.82;100118.20;1594276;88;21029;-75
2022/08/27 09:39:36;;;;;;;;;;;;;;;27.99;58.67;100122.48;1599008;87;20149;-75
2022/08/27 09:42:03;;;;;;;;;;;;;;;27.95;58.57;100119.23;1621380;87;21873;-75
2022/08/27 09:44:31;;;;;;;;;;;;;;;28.00;58.27;100121.39;1620321;87;20169;-75
2022/08/27 09:46:59;;;;;;;;;;;;;;;27.93;58.19;100114.61;1627253;87;20183;-75
2022/08/27 09:49:25;;;;;;;;;;;;;;;27.95;57.99;100111.84;1621435;87;20487;-75
2022/08/27 09:51:52;;;;;;;;;;;;;;;27.99;57.91;100114.27;1620551;87;20107;-75
2022/08/27 09:54:33;;;;;;;;;;;;;;;27.93;57.71;100105.84;1630930;87;21869;-75
2022/08/27 09:56:59;;;;;;;;;;;;;;;28.06;57.57;100101.02;1604030;87;20307;-75
2022/08/27 09:59:29;;;;;;;;;;;;;;;28.17;57.30;100106.68;1630972;86;20188;-76
2022/08/27 10:02:08;;;;;;;;;;;;;;;28.08;57.04;100103.48;1617335;87;20513;-75
2022/08/27 10:04:45;;;;;;;;;;;;;;;28.06;56.90;100105.13;1626052;87;20159;-75
2022/08/27 10:07:34;;;;;;;;;;;;;;;28.02;56.68;100100.52;1633541;86;21819;-75
2022/08/27 10:10:30;;;;;;;;;;;;;;;27.92;56.49;100099.27;1642878;86;20968;-75
2022/08/27 10:13:05;;;;;;;;;;;;;;;27.76;56.41;100099.42;1643417;86;20114;-75
2022/08/27 10:15:34;;;;;;;;;;;;;;;27.76;56.42;100104.11;1642631;86;20402;-76
2022/08/27 10:18:04;;;;;;;;;;;;;;;28.03;56.62;100103.52;1643525;86;20111;-75
2022/08/27 10:20:42;;;;;;;;;;;;;;;28.43;56.46;100097.55;1642857;86;21853;-75
2022/08/27 10:23:30;;;;;;;;;;;;;;;28.68;56.32;100106.02;1641991;86;20321;-75
2022/08/27 10:26:17;;;;;;;;;;;;;;;28.79;55.96;100097.89;1652019;86;20171;-76
2022/08/27 10:29:12;;;;;;;;;;;;;;;28.59;55.65;100103.66;1661864;86;20503;-75
2022/08/27 10:31:45;;;;;;;;;;;;;;;28.38;55.62;100096.26;1660707;86;20440;-75
2022/08/27 10:34:17;;;;;;;;;;;;;;;28.52;55.35;100099.09;1658674;84;21859;-76
2022/08/27 10:36:53;;;;;;;;;;;;;;;28.45;55.17;100098.64;1631083;86;20105;-75
2022/08/27 10:39:40;;;;;;;;;;;;;;;28.51;54.95;100097.45;1627708;86;20142;-75
2022/08/27 10:42:28;;;;;;;;;;;;;;;28.66;54.87;100104.92;1620433;86;21082;-75
2022/08/27 10:45:04;;;;;;;;;;;;;;;28.85;54.71;100095.35;1621537;86;20395;-76
2022/08/27 10:47:54;;;;;;;;;;;;;;;28.80;54.42;100096.79;1626701;86;22419;-76
2022/08/27 10:50:30;;;;;;;;;;;;;;;28.79;54.34;100100.64;1637027;86;21004;-76
2022/08/27 10:53:05;;;;;;;;;;;;;;;28.58;54.16;100105.58;1633128;86;20123;-76
2022/08/27 10:55:32;;;;;;;;;;;;;;;28.69;54.00;100093.93;1641230;86;20444;-76
2022/08/27 10:58:08;;;;;;;;;;;;;;;28.91;53.92;100101.02;1640889;86;20593;-76
2022/08/27 11:00:56;;;;;;;;;;;;;;;29.10;53.75;100094.11;1642447;86;21739;-76
2022/08/27 11:03:42;;;;;;;;;;;;;;;29.21;53.55;100095.02;1642715;86;20829;-76
2022/08/27 11:06:15;;;;;;;;;;;;;;;29.27;53.21;100101.84;1639725;86;20122;-76
2022/08/27 11:08:49;;;;;;;;;;;;;;;29.34;52.88;100100.91;1639941;86;20405;-76
2022/08/27 11:11:24;;;;;;;;;;;;;;;29.43;52.65;100106.77;1642330;86;20211;-76
2022/08/27 11:13:50;;;;;;;;;;;;;;;29.46;52.48;100110.84;1635407;86;21885;-76
2022/08/27 11:16:19;;;;;;;;;;;;;;;29.47;52.30;100105.61;1633497;86;20679;-76
2022/08/27 11:18:54;;;;;;;;;;;;;;;29.55;52.22;100110.42;1625392;86;20117;-76
2022/08/27 11:21:35;;;;;;;;;;;;;;;29.51;52.11;100112.14;1653267;86;20441;-77
2022/08/27 11:24:17;;;;;;;;;;;;;;;29.44;51.94;100102.09;1647968;86;20202;-76
2022/08/27 11:26:42;;;;;;;;;;;;;;;29.31;51.63;100107.00;1658381;85;21740;-76
2022/08/27 11:29:28;;;;;;;;;;;;;;;29.12;51.29;100100.95;1673396;85;20300;-76
2022/08/27 11:32:00;;;;;;;;;;;;;;;29.19;51.20;100105.50;1629556;86;20252;-76
2022/08/27 11:34:36;;;;;;;;;;;;;;;29.29;51.08;100102.34;1633208;85;21047;-76
2022/08/27 11:37:11;;;;;;;;;;;;;;;29.48;51.12;100110.82;1636865;86;20160;-75
2022/08/27 11:40:07;;;;;;;;;;;;;;;29.55;51.08;100103.55;1659435;85;21842;-76
2022/08/27 11:42:41;;;;;;;;;;;;;;;29.54;51.29;100106.03;1650271;85;20156;-76
2022/08/27 11:45:23;;;;;;;;;;;;;;;29.29;51.40;100100.42;1664822;85;20169;-76
2022/08/27 11:47:58;;;;;;;;;;;;;;;29.07;51.58;100096.08;1617767;87;20742;-76
2022/08/27 11:50:24;;;;;;;;;;;;;;;29.06;51.90;100093.89;1628391;86;20164;-76
2022/08/27 11:52:57;;;;;;;;;;;;;;;29.02;52.07;100092.88;1635040;86;21738;-76
2022/08/27 11:55:26;;;;;;;;;;;;;;;29.08;52.24;100090.86;1628054;86;21175;-76
2022/08/27 11:58:07;;;;;;;;;;;;;;;29.15;52.25;100095.41;1622302;86;20734;-76
2022/08/27 12:00:36;;;;;;;;;;;;;;;29.09;52.29;100082.88;1647957;86;20468;-76
2022/08/27 12:03:20;;;;;;;;;;;;;;;29.12;52.24;100091.34;1635237;86;20286;-76
2022/08/27 12:05:50;;;;;;;;;;;;;;;29.08;52.27;100087.55;1623950;87;21866;-76
2022/08/27 12:08:19;;;;;;;;;;;;;;;29.06;52.30;100082.90;1624980;87;20205;-76
2022/08/27 12:10:52;;;;;;;;;;;;;;;29.13;52.30;100079.80;1635390;87;20331;-76
2022/08/27 12:13:28;;;;;;;;;;;;;;;29.18;52.27;100076.39;1615635;88;20454;-76
2022/08/27 12:16:03;;;;;;;;;;;;;;;29.17;52.20;100078.05;1667322;85;20209;-76
2022/08/27 12:18:42;;;;;;;;;;;;;;;29.16;52.10;100075.08;1661679;85;22085;-76
2022/08/27 12:21:28;;;;;;;;;;;;;;;29.14;52.05;100069.87;1651850;85;20226;-76
2022/08/27 12:24:10;;;;;;;;;;;;;;;29.23;52.02;100070.83;1674771;84;20138;-76
2022/08/27 12:26:38;;;;;;;;;;;;;;;29.33;51.95;100067.66;1609493;88;21083;-76
2022/08/27 12:29:40;;;;;;;;;;;;;;;29.41;51.91;100068.36;1667843;85;20144;-75
2022/08/27 12:32:30;;;;;;;;;;;;;;;29.40;51.74;100065.34;1678003;84;21732;-76
2022/08/27 12:35:08;;;;;;;;;;;;;;;29.41;51.74;100066.42;1672010;85;21109;-76
2022/08/27 12:37:40;;;;;;;;;;;;;;;29.50;51.68;100059.66;1613747;87;20618;-75
2022/08/27 12:40:13;;;;;;;;;;;;;;;29.42;51.60;100063.91;1595024;89;20927;-76
2022/08/27 12:42:38;;;;;;;;;;;;;;;29.46;51.73;100060.00;1590986;89;20164;-76
2022/08/27 12:45:05;;;;;;;;;;;;;;;29.53;51.64;100057.11;1576836;87;21902;-76
2022/08/27 12:47:35;;;;;;;;;;;;;;;29.67;51.57;100059.88;1602901;87;20103;-76
2022/08/27 12:50:00;;;;;;;;;;;;;;;29.62;51.52;100062.73;1603038;87;20125;-76
2022/08/27 12:53:01;;;;;;;;;;;;;;;29.38;51.48;100060.72;1599250;87;20587;-76
2022/08/27 12:55:43;;;;;;;;;;;;;;;29.25;51.58;100062.27;1626814;87;20171;-76